sensor_id;sensor_type;location;lat;lon;timestamp;pressure;altitude;pressure_sealevel;temperature;humidity
72414;BME280;60995;52.154;4.498;2023-11-21T00:02:11;101719.44;;;10.69;100.00
72414;BME280;60995;52.154;4.498;2023-11-21T00:04:27;101724.41;;;10.75;100.00
72414;BME280;60995;52.154;4.498;2023-11-21T00:06:43;101726.03;;;10.89;100.00
72414;BME280;60995;52.154;4.498;2023-11-21T00:09:02;101730.63;;;10.89;100.00
72414;BME280;60995;52.154;4.498;2023-11-21T00:11:19;101726.22;;;10.99;100.00
72414;BME280;60995;52.154;4.498;2023-11-21T00:13:35;101724.31;;;10.88;100.00
72414;BME280;60995;52.154;4.498;2023-11-21T00:15:51;101721.97;;;10.84;100.00
72414;BME280;60995;52.154;4.498;2023-11-21T00:18:07;101723.56;;;10.86;100.00
72414;BME280;60995;52.154;4.498;2023-11-21T00:20:24;101717.25;;;10.86;100.00
72414;BME280;60995;52.154;4.498;2023-11-21T00:22:40;101715.91;;;10.80;100.00
72414;BME280;60995;52.154;4.498;2023-11-21T00:24:57;101713.31;;;10.79;100.00
72414;BME280;60995;52.154;4.498;2023-11-21T00:27:13;101714.78;;;10.83;100.00
72414;BME280;60995;52.154;4.498;2023-11-21T00:29:30;101715.44;;;10.86;100.00
72414;BME280;60995;52.154;4.498;2023-11-21T00:31:46;101712.84;;;10.85;100.00
72414;BME280;60995;52.154;4.498;2023-11-21T00:34:03;101716.53;;;10.84;100.00
72414;BME280;60995;52.154;4.498;2023-11-21T00:36:21;101719.75;;;10.89;100.00
72414;BME280;60995;52.154;4.498;2023-11-21T00:38:37;101727.78;;;10.90;100.00
72414;BME280;60995;52.154;4.498;2023-11-21T00:40:55;101732.38;;;10.90;100.00
72414;BME280;60995;52.154;4.498;2023-11-21T00:43:12;101734.31;;;10.88;100.00
72414;BME280;60995;52.154;4.498;2023-11-21T00:45:28;101732.13;;;10.93;100.00
72414;BME280;60995;52.154;4.498;2023-11-21T00:47:44;101740.38;;;10.91;100.00
72414;BME280;60995;52.154;4.498;2023-11-21T00:50:00;101743.81;;;10.93;100.00
72414;BME280;60995;52.154;4.498;2023-11-21T00:52:17;101749.03;;;10.97;100.00
72414;BME280;60995;52.154;4.498;2023-11-21T00:54:33;101745.22;;;10.99;100.00
72414;BME280;60995;52.154;4.498;2023-11-21T00:56:49;101742.22;;;10.91;100.00
72414;BME280;60995;52.154;4.498;2023-11-21T00:59:05;101740.13;;;10.95;100.00
72414;BME280;60995;52.154;4.498;2023-11-21T01:01:22;101737.50;;;10.82;100.00
72414;BME280;60995;52.154;4.498;2023-11-21T01:03:39;101734.38;;;10.75;100.00
72414;BME280;60995;52.154;4.498;2023-11-21T01:05:55;101741.81;;;10.84;100.00
72414;BME280;60995;52.154;4.498;2023-11-21T01:08:11;101748.06;;;10.73;100.00
72414;BME280;60995;52.154;4.498;2023-11-21T01:10:28;101753.22;;;10.65;100.00
72414;BME280;60995;52.154;4.498;2023-11-21T01:12:44;101755.06;;;10.65;100.00
72414;BME280;60995;52.154;4.498;2023-11-21T01:15:01;101753.22;;;10.65;100.00
72414;BME280;60995;52.154;4.498;2023-11-21T01:17:17;101768.50;;;10.66;100.00
72414;BME280;60995;52.154;4.498;2023-11-21T01:19:34;101774.97;;;10.76;100.00
72414;BME280;60995;52.154;4.498;2023-11-21T01:21:51;101782.66;;;10.83;100.00
72414;BME280;60995;52.154;4.498;2023-11-21T01:24:08;101781.44;;;10.87;100.00
72414;BME280;60995;52.154;4.498;2023-11-21T01:26:25;101787.91;;;10.97;100.00
72414;BME280;60995;52.154;4.498;2023-11-21T01:28:41;101782.66;;;11.07;100.00
72414;BME280;60995;52.154;4.498;2023-11-21T01:30:57;101778.53;;;11.01;100.00
72414;BME280;60995;52.154;4.498;2023-11-21T01:33:14;101787.56;;;11.02;100.00
72414;BME280;60995;52.154;4.498;2023-11-21T01:35:31;101792.88;;;11.03;100.00
72414;BME280;60995;52.154;4.498;2023-11-21T01:37:47;101783.97;;;11.01;100.00
72414;BME280;60995;52.154;4.498;2023-11-21T01:40:04;101791.66;;;11.07;100.00
72414;BME280;60995;52.154;4.498;2023-11-21T01:42:25;101793.91;;;11.14;100.00
72414;BME280;60995;52.154;4.498;2023-11-21T01:44:45;101799.34;;;11.14;100.00
72414;BME280;60995;52.154;4.498;2023-11-21T01:47:02;101798.25;;;11.16;100.00
72414;BME280;60995;52.154;4.498;2023-11-21T01:49:20;101805.41;;;11.17;100.00
72414;BME280;60995;52.154;4.498;2023-11-21T01:51:37;101801.69;;;11.18;100.00
72414;BME280;60995;52.154;4.498;2023-11-21T01:53:53;101800.38;;;11.24;100.00
72414;BME280;60995;52.154;4.498;2023-11-21T01:56:11;101814.09;;;11.22;100.00
72414;BME280;60995;52.154;4.498;2023-11-21T01:58:27;101815.84;;;11.35;100.00
72414;BME280;60995;52.154;4.498;2023-11-21T02:00:44;101822.84;;;11.26;100.00
72414;BME280;60995;52.154;4.498;2023-11-21T02:03:00;101813.38;;;11.32;100.00
72414;BME280;60995;52.154;4.498;2023-11-21T02:05:18;101816.44;;;11.27;100.00
72414;BME280;60995;52.154;4.498;2023-11-21T02:07:35;101815.66;;;11.25;100.00
72414;BME280;60995;52.154;4.498;2023-11-21T02:09:53;101818.38;;;11.25;100.00
72414;BME280;60995;52.154;4.498;2023-11-21T02:12:09;101813.97;;;11.35;100.00
72414;BME280;60995;52.154;4.498;2023-11-21T02:14:27;101824.31;;;11.30;100.00
72414;BME280;60995;52.154;4.498;2023-11-21T02:16:43;101828.56;;;11.34;100.00
72414;BME280;60995;52.154;4.498;2023-11-21T02:19:06;101832.38;;;11.32;100.00
72414;BME280;60995;52.154;4.498;2023-11-21T02:21:25;101837.22;;;11.39;100.00
72414;BME280;60995;52.154;4.498;2023-11-21T02:23:42;101840.84;;;11.51;100.00
72414;BME280;60995;52.154;4.498;2023-11-21T02:26:00;101847.59;;;11.46;100.00
72414;BME280;60995;52.154;4.498;2023-11-21T02:28:20;101838.94;;;11.40;100.00
72414;BME280;60995;52.154;4.498;2023-11-21T02:30:41;101846.38;;;11.50;100.00
72414;BME280;60995;52.154;4.498;2023-11-21T02:32:59;101847.41;;;11.60;100.00
72414;BME280;60995;52.154;4.498;2023-11-21T02:35:16;101858.19;;;11.62;100.00
72414;BME280;60995;52.154;4.498;2023-11-21T02:37:32;101859.56;;;11.79;100.00
72414;BME280;60995;52.154;4.498;2023-11-21T02:39:49;101861.56;;;11.88;100.00
72414;BME280;60995;52.154;4.498;2023-11-21T02:42:05;101865.41;;;11.97;100.00
72414;BME280;60995;52.154;4.498;2023-11-21T02:44:21;101855.88;;;11.91;100.00
72414;BME280;60995;52.154;4.498;2023-11-21T02:46:38;101859.06;;;11.85;100.00
72414;BME280;60995;52.154;4.498;2023-11-21T02:48:55;101865.13;;;11.88;100.00
72414;BME280;60995;52.154;4.498;2023-11-21T02:51:13;101870.94;;;11.72;100.00
72414;BME280;60995;52.154;4.498;2023-11-21T02:53:31;101865.69;;;11.58;100.00
72414;BME280;60995;52.154;4.498;2023-11-21T02:55:47;101859.56;;;11.43;100.00
72414;BME280;60995;52.154;4.498;2023-11-21T02:58:04;101863.78;;;11.36;100.00
72414;BME280;60995;52.154;4.498;2023-11-21T03:00:20;101862.88;;;11.35;100.00
72414;BME280;60995;52.154;4.498;2023-11-21T03:02:40;101866.19;;;11.28;100.00
72414;BME280;60995;52.154;4.498;2023-11-21T03:04:57;101870.00;;;11.25;100.00
72414;BME280;60995;52.154;4.498;2023-11-21T03:07:13;101868.03;;;11.27;100.00
72414;BME280;60995;52.154;4.498;2023-11-21T03:09:29;101877.47;;;11.34;100.00
72414;BME280;60995;52.154;4.498;2023-11-21T03:11:46;101872.44;;;11.41;100.00
72414;BME280;60995;52.154;4.498;2023-11-21T03:14:02;101872.81;;;11.48;100.00
72414;BME280;60995;52.154;4.498;2023-11-21T03:16:18;101868.75;;;11.53;100.00
72414;BME280;60995;52.154;4.498;2023-11-21T03:18:35;101867.19;;;11.62;100.00
72414;BME280;60995;52.154;4.498;2023-11-21T03:20:52;101865.81;;;11.56;100.00
72414;BME280;60995;52.154;4.498;2023-11-21T03:23:09;101866.56;;;11.58;100.00
72414;BME280;60995;52.154;4.498;2023-11-21T03:25:25;101869.41;;;11.57;100.00
72414;BME280;60995;52.154;4.498;2023-11-21T03:27:41;101876.56;;;11.58;100.00
72414;BME280;60995;52.154;4.498;2023-11-21T03:29:58;101879.16;;;11.59;100.00
72414;BME280;60995;52.154;4.498;2023-11-21T03:32:14;101882.53;;;11.63;100.00
72414;BME280;60995;52.154;4.498;2023-11-21T03:34:30;101893.78;;;11.70;100.00
72414;BME280;60995;52.154;4.498;2023-11-21T03:36:46;101896.63;;;11.68;100.00
72414;BME280;60995;52.154;4.498;2023-11-21T03:39:04;101896.84;;;11.65;100.00
72414;BME280;60995;52.154;4.498;2023-11-21T03:41:21;101902.28;;;11.65;100.00
72414;BME280;60995;52.154;4.498;2023-11-21T03:43:37;101894.88;;;11.67;100.00
72414;BME280;60995;52.154;4.498;2023-11-21T03:45:53;101903.69;;;11.71;100.00
72414;BME280;60995;52.154;4.498;2023-11-21T03:48:12;101903.91;;;11.68;100.00
72414;BME280;60995;52.154;4.498;2023-11-21T03:50:29;101909.31;;;11.68;100.00
72414;BME280;60995;52.154;4.498;2023-11-21T03:52:45;101918.69;;;11.88;100.00
72414;BME280;60995;52.154;4.498;2023-11-21T03:55:02;101909.38;;;11.79;100.00
72414;BME280;60995;52.154;4.498;2023-11-21T03:57:18;101914.69;;;11.81;100.00
72414;BME280;60995;52.154;4.498;2023-11-21T03:59:34;101925.59;;;11.92;100.00
72414;BME280;60995;52.154;4.498;2023-11-21T04:01:51;101925.91;;;12.00;100.00
72414;BME280;60995;52.154;4.498;2023-11-21T04:04:07;101938.38;;;12.03;100.00
72414;BME280;60995;52.154;4.498;2023-11-21T04:06:23;101944.94;;;12.00;100.00
72414;BME280;60995;52.154;4.498;2023-11-21T04:08:40;101948.41;;;12.02;100.00
72414;BME280;60995;52.154;4.498;2023-11-21T04:10:56;101943.19;;;11.99;100.00
72414;BME280;60995;52.154;4.498;2023-11-21T04:13:12;101948.28;;;12.04;100.00
72414;BME280;60995;52.154;4.498;2023-11-21T04:15:29;101959.03;;;12.05;100.00
72414;BME280;60995;52.154;4.498;2023-11-21T04:17:45;101955.69;;;12.02;100.00
72414;BME280;60995;52.154;4.498;2023-11-21T04:20:04;101958.69;;;12.10;100.00
72414;BME280;60995;52.154;4.498;2023-11-21T04:22:24;101953.13;;;12.12;100.00
72414;BME280;60995;52.154;4.498;2023-11-21T04:24:40;101965.66;;;12.26;100.00
72414;BME280;60995;52.154;4.498;2023-11-21T04:26:57;101965.97;;;12.10;100.00
72414;BME280;60995;52.154;4.498;2023-11-21T04:29:13;101969.41;;;12.00;100.00
72414;BME280;60995;52.154;4.498;2023-11-21T04:31:29;101953.06;;;11.89;100.00
72414;BME280;60995;52.154;4.498;2023-11-21T04:33:46;101955.88;;;11.87;100.00
72414;BME280;60995;52.154;4.498;2023-11-21T04:36:02;101953.00;;;11.78;100.00
72414;BME280;60995;52.154;4.498;2023-11-21T04:38:18;101955.94;;;11.74;100.00
72414;BME280;60995;52.154;4.498;2023-11-21T04:40:35;101963.81;;;11.66;100.00
72414;BME280;60995;52.154;4.498;2023-11-21T04:42:51;101958.78;;;11.73;100.00
72414;BME280;60995;52.154;4.498;2023-11-21T04:45:08;101970.41;;;11.75;100.00
72414;BME280;60995;52.154;4.498;2023-11-21T04:47:25;101962.78;;;11.56;100.00
72414;BME280;60995;52.154;4.498;2023-11-21T04:49:45;101970.53;;;11.49;100.00
72414;BME280;60995;52.154;4.498;2023-11-21T04:52:03;101977.94;;;11.71;100.00
72414;BME280;60995;52.154;4.498;2023-11-21T04:54:20;101977.66;;;11.63;100.00
72414;BME280;60995;52.154;4.498;2023-11-21T04:56:37;101969.78;;;11.71;100.00
72414;BME280;60995;52.154;4.498;2023-11-21T04:58:54;101965.56;;;11.67;100.00
72414;BME280;60995;52.154;4.498;2023-11-21T05:01:10;101965.50;;;11.56;100.00
72414;BME280;60995;52.154;4.498;2023-11-21T05:03:27;101971.25;;;11.64;100.00
72414;BME280;60995;52.154;4.498;2023-11-21T05:05:45;101970.47;;;11.62;100.00
72414;BME280;60995;52.154;4.498;2023-11-21T05:08:02;101970.47;;;11.62;100.00
72414;BME280;60995;52.154;4.498;2023-11-21T05:10:19;101979.41;;;11.64;100.00
72414;BME280;60995;52.154;4.498;2023-11-21T05:12:36;101997.56;;;11.64;100.00
72414;BME280;60995;52.154;4.498;2023-11-21T05:14:55;102002.00;;;11.65;100.00
72414;BME280;60995;52.154;4.498;2023-11-21T05:17:11;101998.78;;;11.84;100.00
72414;BME280;60995;52.154;4.498;2023-11-21T05:19:27;102001.69;;;11.81;100.00
72414;BME280;60995;52.154;4.498;2023-11-21T05:21:44;102003.72;;;11.90;100.00
72414;BME280;60995;52.154;4.498;2023-11-21T05:24:01;102021.50;;;12.07;100.00
72414;BME280;60995;52.154;4.498;2023-11-21T05:26:17;102009.50;;;12.10;100.00
72414;BME280;60995;52.154;4.498;2023-11-21T05:28:33;102009.25;;;12.01;100.00
72414;BME280;60995;52.154;4.498;2023-11-21T05:30:49;102006.41;;;12.03;100.00
72414;BME280;60995;52.154;4.498;2023-11-21T05:33:06;102014.81;;;12.00;100.00
72414;BME280;60995;52.154;4.498;2023-11-21T05:35:22;102011.72;;;12.04;100.00
72414;BME280;60995;52.154;4.498;2023-11-21T05:37:38;102013.44;;;12.05;100.00
72414;BME280;60995;52.154;4.498;2023-11-21T05:39:55;102012.84;;;12.13;100.00
72414;BME280;60995;52.154;4.498;2023-11-21T05:42:15;102013.75;;;12.14;100.00
72414;BME280;60995;52.154;4.498;2023-11-21T05:44:32;102007.78;;;12.08;100.00
72414;BME280;60995;52.154;4.498;2023-11-21T05:46:52;102019.91;;;12.16;100.00
72414;BME280;60995;52.154;4.498;2023-11-21T05:49:09;102013.97;;;12.11;100.00
72414;BME280;60995;52.154;4.498;2023-11-21T05:51:25;102025.34;;;12.16;100.00
72414;BME280;60995;52.154;4.498;2023-11-21T05:53:41;102027.09;;;12.17;100.00
72414;BME280;60995;52.154;4.498;2023-11-21T05:55:57;102035.00;;;12.08;100.00
72414;BME280;60995;52.154;4.498;2023-11-21T05:58:13;102035.00;;;12.08;100.00
72414;BME280;60995;52.154;4.498;2023-11-21T06:00:31;102042.44;;;12.18;100.00
72414;BME280;60995;52.154;4.498;2023-11-21T06:02:49;102044.16;;;12.19;100.00
72414;BME280;60995;52.154;4.498;2023-11-21T06:05:08;102048.63;;;12.20;100.00
72414;BME280;60995;52.154;4.498;2023-11-21T06:07:24;102050.56;;;12.06;100.00
72414;BME280;60995;52.154;4.498;2023-11-21T06:09:40;102057.16;;;12.15;100.00
72414;BME280;60995;52.154;4.498;2023-11-21T06:11:57;102063.50;;;12.03;100.00
72414;BME280;60995;52.154;4.498;2023-11-21T06:14:13;102061.94;;;11.87;100.00
72414;BME280;60995;52.154;4.498;2023-11-21T06:16:29;102070.38;;;11.71;100.00
72414;BME280;60995;52.154;4.498;2023-11-21T06:18:45;102068.63;;;11.70;100.00
72414;BME280;60995;52.154;4.498;2023-11-21T06:21:02;102083.00;;;11.72;100.00
72414;BME280;60995;52.154;4.498;2023-11-21T06:23:18;102101.50;;;11.67;100.00
72414;BME280;60995;52.154;4.498;2023-11-21T06:25:34;102101.41;;;11.56;100.00
72414;BME280;60995;52.154;4.498;2023-11-21T06:27:52;102117.19;;;11.51;100.00
72414;BME280;60995;52.154;4.498;2023-11-21T06:30:10;102119.91;;;11.51;100.00
72414;BME280;60995;52.154;4.498;2023-11-21T06:32:27;102127.34;;;11.49;100.00
72414;BME280;60995;52.154;4.498;2023-11-21T06:34:45;102132.97;;;11.46;100.00
72414;BME280;60995;52.154;4.498;2023-11-21T06:37:01;102139.84;;;11.38;100.00
72414;BME280;60995;52.154;4.498;2023-11-21T06:39:17;102142.75;;;11.35;100.00
72414;BME280;60995;52.154;4.498;2023-11-21T06:41:34;102139.19;;;11.48;100.00
72414;BME280;60995;52.154;4.498;2023-11-21T06:43:50;102147.72;;;11.67;100.00
72414;BME280;60995;52.154;4.498;2023-11-21T06:46:06;102150.09;;;11.72;100.00
72414;BME280;60995;52.154;4.498;2023-11-21T06:48:23;102159.78;;;11.76;100.00
72414;BME280;60995;52.154;4.498;2023-11-21T06:50:39;102162.66;;;11.86;100.00
72414;BME280;60995;52.154;4.498;2023-11-21T06:52:55;102170.19;;;11.82;100.00
72414;BME280;60995;52.154;4.498;2023-11-21T06:55:11;102170.84;;;11.86;100.00
72414;BME280;60995;52.154;4.498;2023-11-21T06:57:28;102171.75;;;11.73;100.00
72414;BME280;60995;52.154;4.498;2023-11-21T06:59:44;102167.06;;;11.63;100.00
72414;BME280;60995;52.154;4.498;2023-11-21T07:02:01;102168.69;;;11.65;100.00
72414;BME280;60995;52.154;4.498;2023-11-21T07:04:17;102161.31;;;11.67;100.00
72414;BME280;60995;52.154;4.498;2023-11-21T07:06:34;102157.91;;;11.77;100.00
72414;BME280;60995;52.154;4.498;2023-11-21T07:08:51;102142.56;;;11.75;100.00
72414;BME280;60995;52.154;4.498;2023-11-21T07:11:08;102138.22;;;11.73;100.00
72414;BME280;60995;52.154;4.498;2023-11-21T07:13:24;102131.28;;;11.69;100.00
72414;BME280;60995;52.154;4.498;2023-11-21T07:15:42;102131.69;;;11.75;100.00
72414;BME280;60995;52.154;4.498;2023-11-21T07:17:59;102119.56;;;11.68;100.00
72414;BME280;60995;52.154;4.498;2023-11-21T07:20:15;102113.44;;;11.78;100.00
72414;BME280;60995;52.154;4.498;2023-11-21T07:22:32;102123.44;;;11.77;100.00
72414;BME280;60995;52.154;4.498;2023-11-21T07:24:49;102104.06;;;11.82;100.00
72414;BME280;60995;52.154;4.498;2023-11-21T07:27:06;102113.94;;;11.96;100.00
72414;BME280;60995;52.154;4.498;2023-11-21T07:29:26;102099.59;;;11.81;100.00
72414;BME280;60995;52.154;4.498;2023-11-21T07:31:42;102100.09;;;11.99;100.00
72414;BME280;60995;52.154;4.498;2023-11-21T07:33:58;102101.97;;;11.98;100.00
72414;BME280;60995;52.154;4.498;2023-11-21T07:36:15;102091.81;;;12.00;100.00
72414;BME280;60995;52.154;4.498;2023-11-21T07:38:31;102083.31;;;12.05;100.00
72414;BME280;60995;52.154;4.498;2023-11-21T07:40:49;102074.00;;;11.96;100.00
72414;BME280;60995;52.154;4.498;2023-11-21T07:43:05;102083.31;;;12.05;100.00
72414;BME280;60995;52.154;4.498;2023-11-21T07:45:21;102078.47;;;11.97;100.00
72414;BME280;60995;52.154;4.498;2023-11-21T07:47:37;102087.16;;;12.02;100.00
72414;BME280;60995;52.154;4.498;2023-11-21T07:49:55;102081.97;;;12.11;100.00
72414;BME280;60995;52.154;4.498;2023-11-21T07:52:11;102081.44;;;12.30;100.00
72414;BME280;60995;52.154;4.498;2023-11-21T07:54:28;102074.66;;;12.35;100.00
72414;BME280;60995;52.154;4.498;2023-11-21T07:56:44;102062.81;;;12.48;100.00
72414;BME280;60995;52.154;4.498;2023-11-21T07:59:01;102053.41;;;12.52;100.00
72414;BME280;60995;52.154;4.498;2023-11-21T08:01:17;102043.25;;;12.54;100.00
72414;BME280;60995;52.154;4.498;2023-11-21T08:03:33;102049.59;;;12.54;100.00
72414;BME280;60995;52.154;4.498;2023-11-21T08:05:49;102056.63;;;12.46;100.00
72414;BME280;60995;52.154;4.498;2023-11-21T08:08:06;102056.91;;;12.65;100.00
72414;BME280;60995;52.154;4.498;2023-11-21T08:10:22;102051.19;;;12.57;100.00
72414;BME280;60995;52.154;4.498;2023-11-21T08:12:38;102059.66;;;12.77;100.00
72414;BME280;60995;52.154;4.498;2023-11-21T08:14:55;102057.41;;;12.93;100.00
72414;BME280;60995;52.154;4.498;2023-11-21T08:17:11;102056.16;;;12.63;100.00
72414;BME280;60995;52.154;4.498;2023-11-21T08:19:27;102059.63;;;12.65;100.00
72414;BME280;60995;52.154;4.498;2023-11-21T08:21:44;102069.56;;;12.89;100.00
72414;BME280;60995;52.154;4.498;2023-11-21T08:24:01;102057.66;;;12.67;100.00
72414;BME280;60995;52.154;4.498;2023-11-21T08:26:23;102064.81;;;12.68;100.00
72414;BME280;60995;52.154;4.498;2023-11-21T08:28:39;102057.44;;;12.82;100.00
72414;BME280;60995;52.154;4.498;2023-11-21T08:30:56;102051.47;;;12.77;100.00
72414;BME280;60995;52.154;4.498;2023-11-21T08:33:12;102046.78;;;12.90;100.00
72414;BME280;60995;52.154;4.498;2023-11-21T08:35:29;102034.03;;;12.79;100.00
72414;BME280;60995;52.154;4.498;2023-11-21T08:37:46;102039.34;;;12.81;100.00
72414;BME280;60995;52.154;4.498;2023-11-21T08:40:06;102028.56;;;12.90;100.00
72414;BME280;60995;52.154;4.498;2023-11-21T08:42:28;102041.31;;;12.90;100.00
72414;BME280;60995;52.154;4.498;2023-11-21T08:44:45;102049.25;;;12.82;100.00
72414;BME280;60995;52.154;4.498;2023-11-21T08:47:02;102063.72;;;12.82;100.00
72414;BME280;60995;52.154;4.498;2023-11-21T08:49:19;102063.38;;;12.87;100.00
72414;BME280;60995;52.154;4.498;2023-11-21T08:51:35;102064.47;;;12.96;100.00
72414;BME280;60995;52.154;4.498;2023-11-21T08:53:51;102073.66;;;12.95;100.00
72414;BME280;60995;52.154;4.498;2023-11-21T08:56:14;102076.75;;;12.90;100.00
72414;BME280;60995;52.154;4.498;2023-11-21T08:58:31;102087.88;;;12.76;100.00
72414;BME280;60995;52.154;4.498;2023-11-21T09:00:48;102096.03;;;12.76;100.00
72414;BME280;60995;52.154;4.498;2023-11-21T09:03:04;102104.47;;;12.72;100.00
72414;BME280;60995;52.154;4.498;2023-11-21T09:05:24;102119.69;;;12.75;100.00
72414;BME280;60995;52.154;4.498;2023-11-21T09:07:42;102125.56;;;12.57;100.00
72414;BME280;60995;52.154;4.498;2023-11-21T09:09:58;102129.94;;;12.71;100.00
72414;BME280;60995;52.154;4.498;2023-11-21T09:12:15;102125.00;;;12.77;100.00
72414;BME280;60995;52.154;4.498;2023-11-21T09:14:32;102133.41;;;12.73;100.00
72414;BME280;60995;52.154;4.498;2023-11-21T09:16:49;102132.88;;;12.57;100.00
72414;BME280;60995;52.154;4.498;2023-11-21T09:19:07;102147.41;;;12.69;100.00
72414;BME280;60995;52.154;4.498;2023-11-21T09:21:23;102159.88;;;12.60;100.00
72414;BME280;60995;52.154;4.498;2023-11-21T09:23:40;102171.34;;;12.52;100.00
72414;BME280;60995;52.154;4.498;2023-11-21T09:25:57;102182.59;;;12.48;100.00
72414;BME280;60995;52.154;4.498;2023-11-21T09:28:15;102185.59;;;12.56;100.00
72414;BME280;60995;52.154;4.498;2023-11-21T09:30:34;102186.69;;;12.53;100.00
72414;BME280;60995;52.154;4.498;2023-11-21T09:32:51;102189.16;;;12.81;100.00
72414;BME280;60995;52.154;4.498;2023-11-21T09:35:08;102185.97;;;12.98;100.00
72414;BME280;60995;52.154;4.498;2023-11-21T09:37:24;102176.50;;;12.80;100.00
72414;BME280;60995;52.154;4.498;2023-11-21T09:39:42;102185.13;;;12.62;100.00
72414;BME280;60995;52.154;4.498;2023-11-21T09:42:14;102195.00;;;12.63;100.00
72414;BME280;60995;52.154;4.498;2023-11-21T09:47:22;102213.47;;;12.60;100.00
72414;BME280;60995;52.154;4.498;2023-11-21T09:49:38;102223.00;;;12.65;100.00
72414;BME280;60995;52.154;4.498;2023-11-21T09:51:55;102226.88;;;12.74;100.00
72414;BME280;60995;52.154;4.498;2023-11-21T09:54:15;102231.94;;;12.67;100.00
72414;BME280;60995;52.154;4.498;2023-11-21T09:56:33;102237.59;;;12.64;100.00
72414;BME280;60995;52.154;4.498;2023-11-21T09:58:53;102252.88;;;12.54;100.00
72414;BME280;60995;52.154;4.498;2023-11-21T10:01:09;102263.31;;;12.60;100.00
72414;BME280;60995;52.154;4.498;2023-11-21T10:03:28;102268.88;;;12.34;100.00
72414;BME280;60995;52.154;4.498;2023-11-21T10:05:48;102278.22;;;12.43;100.00
72414;BME280;60995;52.154;4.498;2023-11-21T10:08:10;102275.44;;;12.56;100.00
72414;BME280;60995;52.154;4.498;2023-11-21T10:10:29;102277.34;;;12.43;100.00
72414;BME280;60995;52.154;4.498;2023-11-21T10:12:55;102274.50;;;12.68;100.00
72414;BME280;60995;52.154;4.498;2023-11-21T10:15:13;102262.81;;;12.79;100.00
72414;BME280;60995;52.154;4.498;2023-11-21T10:17:33;102264.38;;;12.95;100.00
72414;BME280;60995;52.154;4.498;2023-11-21T10:19:58;102263.00;;;13.00;100.00
72414;BME280;60995;52.154;4.498;2023-11-21T10:22:15;102257.03;;;12.95;100.00
72414;BME280;60995;52.154;4.498;2023-11-21T10:24:33;102260.31;;;13.12;100.00
72414;BME280;60995;52.154;4.498;2023-11-21T10:26:50;102267.16;;;12.82;100.00
72414;BME280;60995;52.154;4.498;2023-11-21T10:29:08;102290.72;;;12.46;100.00
72414;BME280;60995;52.154;4.498;2023-11-21T10:31:27;102292.19;;;12.38;100.00
72414;BME280;60995;52.154;4.498;2023-11-21T10:33:44;102300.63;;;12.47;100.00
72414;BME280;60995;52.154;4.498;2023-11-21T10:36:01;102306.53;;;12.40;100.00
72414;BME280;60995;52.154;4.498;2023-11-21T10:38:18;102303.75;;;12.53;100.00
72414;BME280;60995;52.154;4.498;2023-11-21T10:40:40;102296.00;;;12.60;100.00
72414;BME280;60995;52.154;4.498;2023-11-21T10:43:06;102291.69;;;12.45;100.00
72414;BME280;60995;52.154;4.498;2023-11-21T10:45:26;102293.13;;;12.50;100.00
72414;BME280;60995;52.154;4.498;2023-11-21T10:47:45;102296.59;;;12.77;100.00
72414;BME280;60995;52.154;4.498;2023-11-21T10:50:01;102278.50;;;12.76;100.00
72414;BME280;60995;52.154;4.498;2023-11-21T10:52:19;102270.31;;;13.00;100.00
72414;BME280;60995;52.154;4.498;2023-11-21T10:54:37;102259.81;;;13.18;100.00
72414;BME280;60995;52.154;4.498;2023-11-21T10:56:57;102252.44;;;13.31;100.00
72414;BME280;60995;52.154;4.498;2023-11-21T10:59:15;102254.38;;;13.06;100.00
72414;BME280;60995;52.154;4.498;2023-11-21T11:01:32;102243.88;;;13.24;100.00
72414;BME280;60995;52.154;4.498;2023-11-21T11:03:50;102234.03;;;12.99;100.00
72414;BME280;60995;52.154;4.498;2023-11-21T11:06:12;102246.63;;;12.89;100.00
72414;BME280;60995;52.154;4.498;2023-11-21T11:08:29;102254.59;;;13.03;100.00
72414;BME280;60995;52.154;4.498;2023-11-21T11:10:46;102250.88;;;13.04;100.00
72414;BME280;60995;52.154;4.498;2023-11-21T11:13:04;102247.56;;;12.77;100.00
72414;BME280;60995;52.154;4.498;2023-11-21T11:15:24;102261.50;;;12.96;100.00
72414;BME280;60995;52.154;4.498;2023-11-21T11:17:42;102256.78;;;12.87;100.00
72414;BME280;60995;52.154;4.498;2023-11-21T11:20:00;102247.97;;;12.83;100.00
72414;BME280;60995;52.154;4.498;2023-11-21T11:28:17;102238.31;;;13.26;100.00
72414;BME280;60995;52.154;4.498;2023-11-21T11:30:44;102237.38;;;13.50;100.00
72414;BME280;60995;52.154;4.498;2023-11-21T11:36:03;102222.63;;;13.52;100.00
72414;BME280;60995;52.154;4.498;2023-11-21T11:38:27;102228.44;;;13.48;100.00
72414;BME280;60995;52.154;4.498;2023-11-21T11:40:53;102226.91;;;13.32;100.00
72414;BME280;60995;52.154;4.498;2023-11-21T11:43:10;102245.31;;;13.06;100.00
72414;BME280;60995;52.154;4.498;2023-11-21T11:45:32;102261.22;;;12.88;100.00
72414;BME280;60995;52.154;4.498;2023-11-21T11:47:56;102267.69;;;12.98;100.00
72414;BME280;60995;52.154;4.498;2023-11-21T11:50:13;102273.97;;;13.12;100.00
72414;BME280;60995;52.154;4.498;2023-11-21T11:52:37;102271.50;;;13.20;100.00
72414;BME280;60995;52.154;4.498;2023-11-21T11:55:03;102255.59;;;13.14;100.00
72414;BME280;60995;52.154;4.498;2023-11-21T11:57:23;102269.28;;;13.25;100.00
72414;BME280;60995;52.154;4.498;2023-11-21T12:02:51;102252.13;;;13.47;100.00
72414;BME280;60995;52.154;4.498;2023-11-21T12:05:10;102255.91;;;13.22;100.00